Time;durP1;ratioP1;P1;durP2;ratioP2;P2;SDS_P1;SDS_P2;PMS_P1;PMS_P2;Temp;Humidity;BMP_temperature;BMP_pressure;BME280_temperature;BME280_humidity;BME280_pressure;Samples;Min_cycle;Max_cycle;Signal;HPM_P1;HPM_P2
2023/01/24 00:00:56;;;;;;;10.37;6.73;;;;;;;5.98;100.00;95863.28;5053244;28;20972;-83
2023/01/24 00:03:23;;;;;;;12.60;9.00;;;;;;;6.11;100.00;95870.41;5053076;28;20842;-83
2023/01/24 00:05:50;;;;;;;22.17;9.20;;;;;;;6.22;100.00;95868.09;5053327;28;20547;-83
2023/01/24 00:08:19;;;;;;;22.27;11.03;;;;;;;6.39;100.00;95866.38;5053203;28;20456;-83
2023/01/24 00:10:47;;;;;;;16.77;9.07;;;;;;;6.38;100.00;95864.69;5053032;28;20945;-83
2023/01/24 00:13:16;;;;;;;18.00;8.90;;;;;;;6.55;100.00;95869.00;5052931;28;20446;-83
2023/01/24 00:15:43;;;;;;;15.83;11.00;;;;;;;6.53;100.00;95861.25;5053001;28;20438;-83
2023/01/24 00:18:10;;;;;;;7.53;6.40;;;;;;;6.40;100.00;95868.06;5053232;28;20485;-83
2023/01/24 00:20:37;;;;;;;9.17;8.23;;;;;;;6.26;100.00;95870.53;5053142;28;20452;-83
2023/01/24 00:23:03;;;;;;;8.17;7.00;;;;;;;6.11;100.00;95870.41;5017773;28;20450;-83
2023/01/24 00:25:30;;;;;;;10.17;6.33;;;;;;;6.27;100.00;95887.84;5052819;28;20469;-83
2023/01/24 00:27:57;;;;;;;5.40;4.90;;;;;;;6.32;100.00;95878.88;5053004;28;20503;-83
2023/01/24 00:30:25;;;;;;;8.10;6.03;;;;;;;6.43;100.00;95884.38;5052744;28;20457;-83
2023/01/24 00:32:53;;;;;;;9.77;7.60;;;;;;;6.37;100.00;95876.03;5052709;28;20437;-83
2023/01/24 00:35:20;;;;;;;16.90;10.80;;;;;;;6.33;100.00;95883.16;5052584;28;20458;-83
2023/01/24 00:37:47;;;;;;;12.00;10.80;;;;;;;6.13;100.00;95875.53;5052516;28;20449;-83
2023/01/24 00:40:13;;;;;;;9.60;5.60;;;;;;;5.91;100.00;95883.59;5017403;28;20994;-83
2023/01/24 00:42:40;;;;;;;8.27;5.73;;;;;;;5.79;100.00;95879.00;5052427;28;20462;-83
2023/01/24 00:45:08;;;;;;;11.70;5.63;;;;;;;5.76;100.00;95871.31;5052351;28;21013;-83
2023/01/24 00:47:36;;;;;;;5.50;5.00;;;;;;;5.69;100.00;95883.81;5017572;28;20441;-83
2023/01/24 00:50:03;;;;;;;7.77;6.17;;;;;;;5.62;100.00;95884.19;5052298;28;20437;-83
2023/01/24 00:52:30;;;;;;;8.87;5.10;;;;;;;5.56;100.00;95883.56;5001127;28;20464;-83
2023/01/24 00:54:57;;;;;;;8.67;5.30;;;;;;;5.41;100.00;95879.09;5052378;28;20971;-83
2023/01/24 00:57:24;;;;;;;6.67;5.50;;;;;;;5.53;100.00;95877.69;5052232;28;20464;-83
2023/01/24 00:59:51;;;;;;;9.57;6.47;;;;;;;5.44;100.00;95888.53;5051842;28;20571;-83
2023/01/24 01:02:18;;;;;;;8.33;5.13;;;;;;;5.36;100.00;95867.25;5052399;28;20430;-83
2023/01/24 01:04:46;;;;;;;9.50;6.03;;;;;;;5.37;100.00;95880.19;5052361;28;20460;-83
2023/01/24 01:07:13;;;;;;;9.27;5.67;;;;;;;5.41;100.00;95875.66;5052338;28;20449;-83
2023/01/24 01:09:40;;;;;;;9.20;5.70;;;;;;;5.46;100.00;95879.72;5051951;28;20453;-83
2023/01/24 01:12:06;;;;;;;10.47;5.30;;;;;;;5.67;100.00;95883.03;5052283;28;20463;-83
2023/01/24 01:14:34;;;;;;;8.53;5.23;;;;;;;5.67;100.00;95890.00;5052272;28;20453;-83
2023/01/24 01:17:01;;;;;;;9.57;5.43;;;;;;;5.73;100.00;95884.50;5051976;28;20495;-83
2023/01/24 01:19:27;;;;;;;9.83;5.60;;;;;;;5.56;100.00;95880.13;5051989;28;20491;-83
2023/01/24 01:21:56;;;;;;;10.60;5.70;;;;;;;5.78;100.00;95879.88;5052106;28;20449;-82
2023/01/24 01:24:23;;;;;;;8.80;5.93;;;;;;;5.87;100.00;95880.28;5052081;28;20576;-82
2023/01/24 01:26:49;;;;;;;11.00;5.60;;;;;;;5.68;100.00;95889.09;5051628;28;20863;-83
2023/01/24 01:29:16;;;;;;;8.00;5.90;;;;;;;5.81;100.00;95884.97;5052513;28;20520;-83
2023/01/24 01:31:43;;;;;;;10.90;5.87;;;;;;;5.78;100.00;95874.69;5052084;28;20442;-83
2023/01/24 01:34:11;;;;;;;10.40;7.60;;;;;;;5.84;100.00;95887.41;5052233;28;20449;-83
2023/01/24 01:36:38;;;;;;;9.10;6.43;;;;;;;5.83;100.00;95880.53;5051981;28;20445;-83
2023/01/24 01:39:06;;;;;;;8.90;7.03;;;;;;;5.75;100.00;95882.66;5051919;28;20481;-83
2023/01/24 01:41:33;;;;;;;8.70;6.87;;;;;;;5.80;100.00;95878.91;5053998;28;20535;-83
2023/01/24 01:47:02;;;;;;;10.83;6.03;;;;;;;5.85;100.00;95876.91;4971277;28;20436;-83
2023/01/24 01:49:30;;;;;;;9.40;5.83;;;;;;;5.85;100.00;95866.50;4974764;28;20456;-83
2023/01/24 01:52:01;;;;;;;10.30;6.60;;;;;;;5.99;100.00;95863.22;4974721;28;20506;-83
2023/01/24 01:54:32;;;;;;;12.33;7.03;;;;;;;6.00;100.00;95871.88;4974727;28;20825;-83
2023/01/24 01:57:03;;;;;;;9.87;7.00;;;;;;;6.07;100.00;95870.63;4974507;28;20448;-83
2023/01/24 01:59:35;;;;;;;10.63;6.37;;;;;;;5.91;100.00;95878.41;4974678;28;20902;-82
2023/01/24 02:02:04;;;;;;;11.93;7.53;;;;;;;5.97;100.00;95869.44;4974189;28;20450;-83
2023/01/24 02:04:35;;;;;;;6.80;6.07;;;;;;;5.92;100.00;95864.44;4926630;28;20517;-83
2023/01/24 02:07:06;;;;;;;8.87;6.80;;;;;;;5.85;100.00;95871.72;4974309;28;20445;-83
2023/01/24 02:09:38;;;;;;;7.13;5.43;;;;;;;5.84;100.00;95869.19;4974357;28;20437;-83
2023/01/24 02:12:09;;;;;;;6.63;5.57;;;;;;;5.96;100.00;95883.38;4974172;28;20491;-83
2023/01/24 02:17:22;;;;;;;10.50;5.87;;;;;;;5.79;100.00;95871.19;4974304;28;20472;-83
2023/01/24 02:20:09;;;;;;;7.70;5.10;;;;;;;5.91;100.00;95867.97;4926417;28;20484;-83
2023/01/24 02:22:46;;;;;;;7.07;5.07;;;;;;;5.74;100.00;95862.72;4974053;28;20976;-83
2023/01/24 02:25:22;;;;;;;10.23;5.00;;;;;;;5.57;100.00;95867.03;5046651;28;20542;-83
2023/01/24 02:27:50;;;;;;;8.33;6.40;;;;;;;5.59;100.00;95869.56;5054972;28;20449;-83
2023/01/24 02:30:17;;;;;;;5.40;4.50;;;;;;;5.67;100.00;95867.41;5055187;28;20445;-83
2023/01/24 02:32:44;;;;;;;5.37;4.83;;;;;;;5.53;100.00;95865.50;5054879;28;20441;-83
2023/01/24 02:35:26;;;;;;;6.30;4.33;;;;;;;5.32;100.00;95863.09;5055228;28;20456;-83
2023/01/24 02:37:55;;;;;;;6.27;5.20;;;;;;;5.39;100.00;95869.69;5054816;28;20450;-83
2023/01/24 02:40:23;;;;;;;7.20;5.23;;;;;;;5.46;100.00;95865.88;5054763;28;20524;-83
2023/01/24 02:42:52;;;;;;;6.53;4.80;;;;;;;5.47;100.00;95878.81;5054822;28;20441;-83
2023/01/24 02:45:22;;;;;;;5.53;4.73;;;;;;;5.34;100.00;95879.50;5054674;28;20490;-83
2023/01/24 02:47:51;;;;;;;7.07;4.63;;;;;;;5.27;100.00;95879.78;5054295;28;20828;-83
2023/01/24 02:50:19;;;;;;;4.67;3.70;;;;;;;5.16;100.00;95871.63;5054658;28;20925;-84
2023/01/24 02:55:31;;;;;;;8.10;4.73;;;;;;;5.10;100.00;95865.91;5054563;28;20801;-83
2023/01/24 02:58:07;;;;;;;6.60;4.70;;;;;;;5.22;100.00;95865.31;5002996;28;20448;-83
2023/01/24 03:00:35;;;;;;;6.10;4.80;;;;;;;5.06;100.00;95854.78;5054648;28;20571;-84
2023/01/24 03:03:02;;;;;;;6.73;5.07;;;;;;;5.18;100.00;95868.97;5054171;28;20925;-83
2023/01/24 03:05:39;;;;;;;5.50;4.50;;;;;;;5.18;100.00;95863.75;5002717;28;20484;-83
2023/01/24 03:08:08;;;;;;;5.80;4.33;;;;;;;5.21;100.00;95868.84;5054544;28;20448;-83
2023/01/24 03:10:35;;;;;;;4.57;3.90;;;;;;;5.20;100.00;95872.31;5054041;28;20535;-83
2023/01/24 03:34:57;;;;;;;3.80;3.50;;;;;;;5.34;100.00;95859.50;5024097;28;20788;-83
2023/01/24 03:40:09;;;;;;;6.97;5.03;;;;;;;5.34;100.00;95862.13;4972636;28;20532;-83
2023/01/24 03:42:47;;;;;;;8.23;7.43;;;;;;;5.46;100.00;95864.09;4972610;28;20971;-83
2023/01/24 03:45:17;;;;;;;4.73;3.93;;;;;;;5.33;100.00;95860.44;4972603;28;20483;-83
2023/01/24 03:47:54;;;;;;;4.97;4.50;;;;;;;5.41;100.00;95866.09;4972789;28;20505;-83
2023/01/24 03:53:07;;;;;;;5.03;4.53;;;;;;;5.14;100.00;95859.63;4972598;28;20818;-83
2023/01/24 03:55:34;;;;;;;5.80;5.20;;;;;;;5.29;100.00;95858.91;4972507;28;20535;-83
2023/01/24 03:58:01;;;;;;;7.87;6.00;;;;;;;5.14;100.00;95864.81;4924573;28;20460;-83
2023/01/24 04:00:29;;;;;;;6.50;5.27;;;;;;;5.40;100.00;95861.81;4972918;28;20488;-83
2023/01/24 04:02:56;;;;;;;6.10;5.50;;;;;;;5.32;100.00;95856.16;4972229;28;21093;-83
2023/01/24 04:05:23;;;;;;;6.60;5.13;;;;;;;5.13;100.00;95857.94;4972252;28;20476;-84
2023/01/24 04:07:50;;;;;;;5.23;4.60;;;;;;;5.16;100.00;95856.03;4972297;28;20438;-84
2023/01/24 04:10:17;;;;;;;5.43;4.90;;;;;;;4.91;100.00;95853.75;4969916;28;20531;-83
2023/01/24 04:12:44;;;;;;;5.80;3.90;;;;;;;5.00;100.00;95856.84;4970790;28;21297;-83
2023/01/24 04:15:17;;;;;;;6.17;5.60;;;;;;;4.91;100.00;95852.91;4972172;28;20975;-83
2023/01/24 04:17:45;;;;;;;6.57;5.70;;;;;;;4.94;100.00;95855.38;5024688;28;20483;-83
2023/01/24 04:20:13;;;;;;;5.10;4.70;;;;;;;4.94;100.00;95850.19;5002773;28;20484;-83
2023/01/24 04:22:40;;;;;;;7.50;5.13;;;;;;;4.91;100.00;95852.91;5054369;28;20449;-83
2023/01/24 04:25:08;;;;;;;7.40;4.97;;;;;;;4.96;100.00;95857.00;5053890;28;20477;-83
2023/01/24 04:27:35;;;;;;;6.03;5.47;;;;;;;4.76;100.00;95849.28;5054025;28;20880;-84
2023/01/24 04:30:02;;;;;;;5.40;4.90;;;;;;;4.53;100.00;95849.50;5019240;28;20464;-85
2023/01/24 04:35:52;;;;;;;5.03;4.60;;;;;;;4.54;100.00;95849.41;5053717;28;20506;-81
2023/01/24 04:38:18;;;;;;;5.40;4.80;;;;;;;4.55;100.00;95847.66;5054125;28;20438;-83
2023/01/24 04:40:45;;;;;;;6.30;4.93;;;;;;;4.61;100.00;95855.19;5053961;28;20469;-82
2023/01/24 04:43:12;;;;;;;8.50;5.07;;;;;;;4.62;100.00;95843.88;5054076;28;20444;-83
2023/01/24 04:45:39;;;;;;;6.00;5.50;;;;;;;4.64;100.00;95839.47;5053723;28;20503;-80
2023/01/24 04:48:06;;;;;;;7.23;6.07;;;;;;;4.72;100.00;95846.91;5053745;28;20430;-80
2023/01/24 04:50:33;;;;;;;5.40;4.87;;;;;;;4.71;100.00;95851.25;5053946;28;20831;-80
2023/01/24 04:53:01;;;;;;;7.57;6.87;;;;;;;4.74;100.00;95853.72;5053348;28;20453;-80
2023/01/24 04:55:28;;;;;;;6.63;5.93;;;;;;;4.72;100.00;95855.53;5053936;28;20425;-80
2023/01/24 04:57:54;;;;;;;9.80;8.50;;;;;;;4.71;100.00;95858.22;5054207;28;20426;-81
2023/01/24 05:00:21;;;;;;;10.60;6.07;;;;;;;4.77;100.00;95861.38;5053197;28;20476;-80
2023/01/24 05:02:51;;;;;;;6.10;5.50;;;;;;;4.86;100.00;95860.09;5053951;28;20445;-82
2023/01/24 05:05:17;;;;;;;6.63;5.33;;;;;;;4.71;100.00;95866.00;5053260;28;20446;-81
2023/01/24 05:07:44;;;;;;;9.97;6.10;;;;;;;4.60;100.00;95864.72;5018686;28;20940;-82
2023/01/24 05:10:12;;;;;;;5.80;5.10;;;;;;;4.39;100.00;95872.69;5053577;28;20802;-82
2023/01/24 05:12:39;;;;;;;10.67;8.73;;;;;;;4.47;100.00;95873.16;5018765;28;21006;-80
2023/01/24 05:15:07;;;;;;;9.63;8.83;;;;;;;4.41;100.00;95871.69;5053387;28;20437;-80
2023/01/24 05:17:34;;;;;;;10.63;7.67;;;;;;;4.40;100.00;95875.22;5018382;28;20445;-80
2023/01/24 05:20:01;;;;;;;8.43;6.60;;;;;;;4.39;100.00;95878.72;5053117;28;20493;-80
2023/01/24 05:22:27;;;;;;;7.57;6.77;;;;;;;4.15;100.00;95880.63;5058211;28;20445;-81
2023/01/24 05:24:54;;;;;;;8.50;7.50;;;;;;;4.19;100.00;95883.94;5060547;28;20492;-86
2023/01/24 05:27:22;;;;;;;12.90;7.17;;;;;;;4.22;100.00;95894.19;5059561;28;20856;-82
2023/01/24 05:29:49;;;;;;;9.75;7.63;;;;;;;4.21;100.00;95895.94;5058573;28;20438;-82
2023/01/24 05:32:16;;;;;;;9.63;7.80;;;;;;;4.17;100.00;95907.38;5060105;28;20228;-82
2023/01/24 05:34:42;;;;;;;11.63;9.17;;;;;;;4.23;100.00;95903.69;5059382;28;20433;-82
2023/01/24 05:37:09;;;;;;;10.97;9.47;;;;;;;4.28;100.00;95896.50;5059827;28;20947;-83
2023/01/24 05:39:36;;;;;;;9.73;8.17;;;;;;;4.46;100.00;95905.25;5059226;28;20457;-82
2023/01/24 05:42:03;;;;;;;9.90;9.00;;;;;;;4.38;100.00;95902.16;5059787;28;20444;-82
2023/01/24 05:44:31;;;;;;;9.00;6.87;;;;;;;4.55;100.00;95907.44;5059513;28;20487;-82
2023/01/24 05:46:58;;;;;;;8.13;6.30;;;;;;;4.58;100.00;95899.50;5059599;28;20434;-82
2023/01/24 05:49:25;;;;;;;10.40;7.60;;;;;;;4.70;100.00;95911.97;5059367;28;20511;-83
2023/01/24 05:51:52;;;;;;;10.50;7.50;;;;;;;4.85;100.00;95916.44;5060165;28;20453;-84
2023/01/24 05:54:18;;;;;;;9.90;6.40;;;;;;;4.86;100.00;95912.09;5059825;28;20448;-82
2023/01/24 06:00:10;;;;;;;13.70;10.40;;;;;;;4.71;100.00;95926.66;5059561;28;20452;-81
2023/01/24 06:02:37;;;;;;;13.13;11.37;;;;;;;4.73;100.00;95924.81;5008578;28;20449;-82
2023/01/24 06:05:04;;;;;;;14.10;9.47;;;;;;;4.47;100.00;95922.53;5059401;28;20446;-81
2023/01/24 06:07:31;;;;;;;10.70;8.40;;;;;;;4.55;100.00;95942.06;5059077;28;20452;-81
2023/01/24 06:09:58;;;;;;;6.50;5.07;;;;;;;4.56;100.00;95937.72;5059527;28;20498;-81
2023/01/24 06:12:25;;;;;;;9.27;7.73;;;;;;;4.42;100.00;95937.50;5059466;28;20453;-82
2023/01/24 06:14:51;;;;;;;10.10;7.67;;;;;;;4.42;100.00;95937.50;5047933;28;20442;-81
2023/01/24 06:17:20;;;;;;;12.53;8.10;;;;;;;4.32;100.00;95940.47;5039259;28;20441;-82
2023/01/24 06:19:47;;;;;;;7.97;7.17;;;;;;;4.49;100.00;95936.31;5042975;28;20569;-81
2023/01/24 06:22:25;;;;;;;6.83;6.03;;;;;;;4.53;100.00;95940.47;5024174;28;20482;-83
2023/01/24 06:24:52;;;;;;;9.73;8.73;;;;;;;4.46;100.00;95949.44;5055066;28;20964;-83
2023/01/24 06:27:20;;;;;;;7.20;6.30;;;;;;;4.57;100.00;95955.00;5050743;28;20473;-81
2023/01/24 06:29:47;;;;;;;7.60;6.80;;;;;;;4.53;100.00;95958.66;5052278;28;20456;-83
2023/01/24 06:32:32;;;;;;;7.40;5.73;;;;;;;4.42;100.00;95958.28;4997088;28;20456;-83
2023/01/24 06:35:10;;;;;;;10.17;7.87;;;;;;;4.33;100.00;95957.75;5051153;28;20527;-79
2023/01/24 06:37:45;;;;;;;8.57;6.30;;;;;;;4.36;100.00;95964.59;5036103;28;20445;-81
2023/01/24 06:40:16;;;;;;;8.70;6.72;;;;;;;4.18;100.00;95966.22;5040349;28;20452;-79
2023/01/24 06:42:43;;;;;;;8.37;7.10;;;;;;;4.08;100.00;95964.94;5053849;28;20268;-81
2023/01/24 06:45:11;;;;;;;8.20;7.40;;;;;;;4.21;100.00;95965.25;5016476;28;20438;-81
2023/01/24 06:47:40;;;;;;;10.47;8.43;;;;;;;4.21;100.00;95973.03;5039926;28;20441;-81
2023/01/24 06:50:08;;;;;;;10.90;7.40;;;;;;;4.21;100.00;95973.88;5039818;28;20825;-80
2023/01/24 06:52:35;;;;;;;10.80;7.83;;;;;;;4.11;100.00;95974.34;5054075;28;21074;-80
2023/01/24 06:55:03;;;;;;;13.90;7.87;;;;;;;4.21;100.00;95978.22;5050055;28;20520;-81
2023/01/24 06:57:30;;;;;;;15.10;9.07;;;;;;;4.13;100.00;95978.56;5040870;28;20532;-81
2023/01/24 06:59:57;;;;;;;9.17;5.50;;;;;;;3.94;100.00;95982.81;5038151;28;20445;-80
2023/01/24 07:02:24;;;;;;;9.33;5.13;;;;;;;3.95;100.00;95979.31;5016225;28;20492;-81
2023/01/24 07:04:52;;;;;;;11.20;6.90;;;;;;;3.88;100.00;95981.34;5034724;28;20434;-80
2023/01/24 07:07:18;;;;;;;9.73;5.40;;;;;;;3.68;100.00;95976.09;5034563;28;20454;-80
2023/01/24 07:09:45;;;;;;;12.57;7.60;;;;;;;3.84;100.00;95982.38;5034728;28;20438;-80
2023/01/24 07:12:12;;;;;;;14.13;9.80;;;;;;;4.02;100.00;95988.53;5034339;28;20458;-81
2023/01/24 07:14:39;;;;;;;21.73;8.43;;;;;;;3.98;100.00;95990.41;5034512;28;20446;-81
2023/01/24 07:17:06;;;;;;;12.33;10.50;;;;;;;4.00;100.00;95987.75;5034260;28;20786;-80
2023/01/24 07:19:33;;;;;;;9.60;8.60;;;;;;;3.88;100.00;95991.72;4999947;28;20753;-80
2023/01/24 07:22:02;;;;;;;8.30;5.50;;;;;;;3.87;100.00;95995.22;5034304;28;20556;-80
2023/01/24 07:24:30;;;;;;;8.20;5.60;;;;;;;3.77;100.00;95996.50;5034313;28;20547;-81
2023/01/24 07:26:58;;;;;;;8.97;7.37;;;;;;;3.87;100.00;95999.56;5034075;28;20450;-81
2023/01/24 07:29:25;;;;;;;7.83;6.50;;;;;;;3.82;100.00;95998.91;5034460;28;20496;-81
2023/01/24 07:31:53;;;;;;;6.10;4.80;;;;;;;3.79;100.00;96007.69;5034105;28;20925;-81
2023/01/24 07:34:20;;;;;;;5.97;4.63;;;;;;;3.68;100.00;96000.31;5015539;28;20488;-81
2023/01/24 07:36:48;;;;;;;6.37;5.60;;;;;;;3.67;100.00;96003.81;5034159;28;20871;-80
2023/01/24 07:39:16;;;;;;;6.23;4.33;;;;;;;3.65;100.00;96004.78;5033863;28;20952;-81
2023/01/24 07:41:43;;;;;;;7.07;5.70;;;;;;;3.73;100.00;96011.34;5033923;28;20490;-81
2023/01/24 07:44:28;;;;;;;8.87;6.77;;;;;;;3.84;100.00;96020.47;5033771;28;20438;-81
2023/01/24 07:46:56;;;;;;;8.03;5.73;;;;;;;3.83;100.00;96016.19;5033513;28;20457;-80
2023/01/24 07:49:23;;;;;;;8.17;6.33;;;;;;;3.79;100.00;96023.25;5034463;28;20508;-81
2023/01/24 07:51:49;;;;;;;10.30;7.53;;;;;;;3.83;100.00;96023.97;5033709;28;20461;-81
2023/01/24 07:54:19;;;;;;;7.73;5.73;;;;;;;3.82;100.00;96023.13;5033529;28;20442;-81
2023/01/24 07:56:46;;;;;;;7.93;5.97;;;;;;;3.77;100.00;96029.41;5033583;28;20452;-81
2023/01/24 07:59:13;;;;;;;4.87;4.30;;;;;;;3.74;100.00;96036.38;5033685;28;20446;-80
2023/01/24 08:01:40;;;;;;;5.37;4.87;;;;;;;3.70;100.00;96037.41;5033609;28;20493;-81
2023/01/24 08:04:07;;;;;;;11.13;7.30;;;;;;;3.78;100.00;96037.13;5033482;28;20492;-82
2023/01/24 08:06:34;;;;;;;5.23;3.73;;;;;;;3.76;100.00;96032.88;5033741;28;20446;-80
2023/01/24 08:09:00;;;;;;;7.53;5.83;;;;;;;3.89;100.00;96039.28;5033343;28;20445;-81
2023/01/24 08:11:29;;;;;;;5.60;3.73;;;;;;;3.82;100.00;96036.09;5033513;28;20445;-80
2023/01/24 08:13:55;;;;;;;4.43;3.87;;;;;;;3.89;100.00;96034.09;5033698;28;20496;-81
2023/01/24 08:16:25;;;;;;;5.23;4.00;;;;;;;3.90;100.00;96035.78;5032960;28;20496;-81
2023/01/24 08:18:52;;;;;;;10.47;4.90;;;;;;;3.84;100.00;96030.84;5033205;28;20877;-80
2023/01/24 08:21:19;;;;;;;6.23;4.10;;;;;;;3.72;100.00;96038.19;5033336;28;20896;-81
2023/01/24 08:23:45;;;;;;;13.80;10.20;;;;;;;3.88;100.00;96028.06;5033153;28;20451;-81
2023/01/24 08:26:12;;;;;;;6.57;4.27;;;;;;;3.96;100.00;96035.53;5033448;28;20553;-81
2023/01/24 08:28:40;;;;;;;7.40;5.53;;;;;;;4.09;100.00;96031.56;5032903;28;20446;-81
2023/01/24 08:31:07;;;;;;;10.63;7.70;;;;;;;4.16;100.00;96032.97;5032765;28;20810;-81
2023/01/24 08:33:37;;;;;;;27.73;14.17;;;;;;;4.07;100.00;96033.38;5032817;28;20941;-81
2023/01/24 08:36:05;;;;;;;12.57;10.57;;;;;;;4.02;100.00;96035.28;5032891;28;20446;-81
2023/01/24 08:38:31;;;;;;;9.67;8.40;;;;;;;4.02;100.00;96040.47;5032835;28;20937;-81
2023/01/24 08:40:59;;;;;;;11.77;7.93;;;;;;;3.94;100.00;96042.53;5032749;28;20482;-81
2023/01/24 08:43:26;;;;;;;11.93;9.50;;;;;;;3.82;100.00;96037.84;5032909;28;20446;-81
2023/01/24 08:45:56;;;;;;;9.07;6.67;;;;;;;3.89;100.00;96044.50;5034047;28;20442;-81
2023/01/24 08:48:23;;;;;;;10.73;8.00;;;;;;;4.01;100.00;96037.03;5032517;28;20478;-81
2023/01/24 08:50:49;;;;;;;4.37;3.97;;;;;;;3.86;100.00;96044.63;5032416;28;20449;-81
2023/01/24 08:53:16;;;;;;;9.30;5.53;;;;;;;3.99;100.00;96035.41;5014131;28;20451;-81
2023/01/24 08:55:43;;;;;;;6.40;3.80;;;;;;;3.97;100.00;96038.06;5032801;28;20442;-81
2023/01/24 08:58:10;;;;;;;7.73;4.57;;;;;;;3.96;100.00;96035.53;5013865;28;20446;-81
2023/01/24 09:00:36;;;;;;;7.43;5.67;;;;;;;4.12;100.00;96036.63;4981473;28;20451;-81
2023/01/24 09:03:08;;;;;;;6.97;5.13;;;;;;;4.10;100.00;96041.03;5032738;28;20484;-81
2023/01/24 09:05:38;;;;;;;7.30;6.00;;;;;;;4.11;100.00;96041.88;5032473;28;20804;-82
2023/01/24 09:08:05;;;;;;;6.23;5.47;;;;;;;3.97;100.00;96032.88;5032168;28;20528;-81
2023/01/24 09:10:32;;;;;;;5.60;5.10;;;;;;;4.12;100.00;96034.03;5032789;28;20450;-81
2023/01/24 09:12:59;;;;;;;5.30;4.80;;;;;;;4.08;100.00;96035.06;5032260;28;20465;-81
2023/01/24 09:15:26;;;;;;;4.93;4.43;;;;;;;4.03;100.00;96032.63;5032427;28;20442;-81
2023/01/24 09:17:52;;;;;;;5.97;4.67;;;;;;;3.97;100.00;96035.47;5032171;28;20448;-81
2023/01/24 09:20:20;;;;;;;6.33;4.17;;;;;;;3.92;100.00;96036.56;5032311;28;20442;-81
2023/01/24 09:22:47;;;;;;;5.70;4.00;;;;;;;4.00;100.00;96031.91;5013929;28;20489;-80
2023/01/24 09:25:14;;;;;;;6.93;5.13;;;;;;;4.20;100.00;96038.88;5032053;28;20493;-81
2023/01/24 09:27:42;;;;;;;5.43;4.60;;;;;;;4.23;100.00;96030.97;5032146;28;20442;-81
2023/01/24 09:30:11;;;;;;;6.90;4.17;;;;;;;4.17;100.00;96036.41;5032008;28;20449;-81
2023/01/24 09:32:37;;;;;;;4.50;4.10;;;;;;;4.02;100.00;96035.28;4981498;28;20446;-80
2023/01/24 09:35:05;;;;;;;5.10;3.70;;;;;;;3.88;100.00;96029.81;5013602;28;20441;-81
2023/01/24 09:37:33;;;;;;;4.60;4.10;;;;;;;3.83;100.00;96031.75;5032183;28;20445;-81
2023/01/24 09:40:00;;;;;;;5.97;4.70;;;;;;;3.98;100.00;96031.13;5031989;28;20446;-81
2023/01/24 09:42:34;;;;;;;3.70;3.37;;;;;;;3.99;100.00;96025.03;5032432;28;20485;-81
2023/01/24 09:45:14;;;;;;;4.80;3.63;;;;;;;4.12;100.00;96033.19;5031941;28;20448;-80
2023/01/24 09:47:47;;;;;;;5.43;4.90;;;;;;;4.18;100.00;96027.72;5013604;28;20496;-81
2023/01/24 09:50:18;;;;;;;4.03;3.63;;;;;;;4.03;100.00;96023.97;5031929;28;20494;-81
2023/01/24 09:52:50;;;;;;;3.60;3.30;;;;;;;4.09;100.00;96026.34;5032083;28;20541;-81
2023/01/24 09:55:25;;;;;;;3.30;3.00;;;;;;;3.89;100.00;96031.50;5031869;28;20453;-80
2023/01/24 09:57:56;;;;;;;4.57;4.20;;;;;;;3.88;100.00;96028.06;5032049;28;20453;-80
2023/01/24 10:00:27;;;;;;;3.17;2.90;;;;;;;3.86;100.00;96021.25;5031828;28;20817;-80
2023/01/24 10:02:56;;;;;;;5.50;3.90;;;;;;;3.85;100.00;96023.00;5032147;28;20547;-79
2023/01/24 10:05:30;;;;;;;3.53;3.07;;;;;;;3.69;100.00;96022.75;5031731;28;20778;-80
2023/01/24 10:08:15;;;;;;;3.83;3.37;;;;;;;3.82;100.00;96019.69;5032181;28;20861;-80
2023/01/24 10:10:50;;;;;;;3.50;2.97;;;;;;;3.89;100.00;96018.53;5035825;28;20468;-80
2023/01/24 10:13:44;;;;;;;3.20;2.80;;;;;;;3.80;100.00;96030.13;5035348;28;20833;-80
2023/01/24 10:16:33;;;;;;;2.80;2.60;;;;;;;3.90;100.00;96022.81;5035624;28;20511;-80
2023/01/24 10:19:11;;;;;;;2.90;2.60;;;;;;;3.79;100.00;96015.47;4973930;28;20456;-81
2023/01/24 10:21:54;;;;;;;2.97;2.33;;;;;;;3.70;100.00;96015.81;4974238;28;20480;-81
2023/01/24 10:24:25;;;;;;;2.20;2.00;;;;;;;3.57;100.00;96009.44;4973870;28;20543;-81
2023/01/24 10:26:53;;;;;;;3.23;2.83;;;;;;;3.55;100.00;96012.09;4974454;28;20511;-80
2023/01/24 10:29:22;;;;;;;3.60;3.30;;;;;;;3.61;100.00;96009.25;4976607;28;20503;-80
2023/01/24 10:31:57;;;;;;;2.30;2.10;;;;;;;3.41;100.00;96003.97;4974077;28;20883;-80
2023/01/24 10:34:29;;;;;;;5.60;3.30;;;;;;;3.32;100.00;96005.19;4973932;28;20522;-80
2023/01/24 10:37:00;;;;;;;6.13;3.00;;;;;;;3.27;100.00;96001.09;4973998;28;20456;-79
2023/01/24 10:39:28;;;;;;;3.10;2.60;;;;;;;3.05;100.00;95996.72;4974056;28;20455;-80
2023/01/24 10:41:55;;;;;;;3.90;3.07;;;;;;;3.12;100.00;95989.53;4974292;28;21043;-81
2023/01/24 10:44:26;;;;;;;3.07;2.50;;;;;;;3.17;100.00;95995.38;4974553;28;21267;-80
2023/01/24 10:47:21;;;;;;;4.23;1.80;;;;;;;3.24;100.00;95998.63;4974291;28;20846;-80
2023/01/24 10:49:53;;;;;;;3.97;3.57;;;;;;;3.14;100.00;95986.88;4973793;28;20935;-80
2023/01/24 10:52:21;;;;;;;4.33;3.63;;;;;;;3.19;100.00;95992.78;4973728;28;21007;-81
2023/01/24 10:54:53;;;;;;;3.40;3.07;;;;;;;3.14;100.00;95987.72;4973617;28;20445;-80
2023/01/24 10:57:37;;;;;;;6.10;5.50;;;;;;;3.16;100.00;95990.25;5011697;28;20890;-80
2023/01/24 11:00:20;;;;;;;3.23;2.93;;;;;;;3.20;100.00;95987.53;5014698;28;20447;-80
2023/01/24 11:02:49;;;;;;;4.50;4.10;;;;;;;3.17;100.00;95982.44;5014693;28;21057;-81
2023/01/24 11:05:16;;;;;;;2.83;2.63;;;;;;;3.17;100.00;95981.59;5014744;28;20882;-80
2023/01/24 11:07:47;;;;;;;7.33;5.80;;;;;;;3.12;100.00;95986.94;4980475;28;20447;-81
2023/01/24 11:10:21;;;;;;;2.83;2.50;;;;;;;3.10;100.00;95988.75;5014614;28;20493;-80
2023/01/24 11:12:50;;;;;;;3.00;2.80;;;;;;;2.99;100.00;95975.38;5014496;28;20505;-80
2023/01/24 11:15:21;;;;;;;6.57;2.90;;;;;;;2.98;100.00;95969.34;4996555;28;20447;-80
2023/01/24 11:17:55;;;;;;;7.43;5.20;;;;;;;3.19;100.00;95978.06;5014431;28;20847;-80
2023/01/24 11:20:29;;;;;;;2.80;2.60;;;;;;;3.14;100.00;95974.75;5014027;28;20489;-80
2023/01/24 11:23:06;;;;;;;2.93;2.50;;;;;;;3.09;100.00;95974.09;4996409;28;21060;-81
2023/01/24 11:25:35;;;;;;;5.37;2.30;;;;;;;3.07;100.00;95971.56;5027798;28;20481;-81
2023/01/24 11:28:04;;;;;;;2.70;2.50;;;;;;;3.20;100.00;95976.31;4983398;28;20446;-81
2023/01/24 11:30:38;;;;;;;4.23;2.03;;;;;;;3.17;100.00;95966.88;5033959;28;20512;-80
2023/01/24 11:33:24;;;;;;;4.30;3.90;;;;;;;3.40;100.00;95959.03;5034062;28;20468;-82
2023/01/24 11:35:55;;;;;;;3.47;3.27;;;;;;;3.64;100.00;95958.97;5033926;28;20438;-81
2023/01/24 11:38:29;;;;;;;2.20;2.10;;;;;;;3.54;100.00;95963.69;5033817;28;20453;-81
2023/01/24 11:41:07;;;;;;;2.10;2.00;;;;;;;3.49;100.00;95957.84;5033871;28;20446;-80
2023/01/24 11:43:59;;;;;;;1.93;1.73;;;;;;;3.51;100.00;95960.38;5033806;28;20490;-81
2023/01/24 11:46:37;;;;;;;2.83;2.63;;;;;;;3.59;100.00;95956.56;5033668;28;20504;-81
2023/01/24 11:49:27;;;;;;;2.57;2.37;;;;;;;3.48;100.00;95956.16;5033785;28;20994;-81
2023/01/24 11:52:01;;;;;;;3.13;2.40;;;;;;;3.30;100.00;95951.69;5033543;28;20449;-81
2023/01/24 11:54:42;;;;;;;7.17;2.30;;;;;;;3.38;100.00;95950.47;5033802;28;20481;-80
2023/01/24 11:57:23;;;;;;;3.10;2.40;;;;;;;3.52;100.00;95951.69;5033462;28;20455;-81
2023/01/24 12:00:04;;;;;;;2.60;2.40;;;;;;;3.43;100.00;95947.69;5033258;28;20446;-80
2023/01/24 12:02:53;;;;;;;4.30;3.40;;;;;;;3.36;100.00;95935.88;5033298;28;20543;-81
2023/01/24 12:05:31;;;;;;;4.03;3.10;;;;;;;3.51;100.00;95947.41;4972386;28;20503;-81
2023/01/24 12:08:09;;;;;;;3.00;2.70;;;;;;;3.51;100.00;95958.63;4956012;28;20452;-81
2023/01/24 12:10:51;;;;;;;6.47;4.50;;;;;;;3.50;100.00;95951.75;4972180;28;20441;-81
2023/01/24 12:13:28;;;;;;;3.00;2.80;;;;;;;3.51;100.00;95960.38;4972145;28;20995;-80
2023/01/24 12:16:07;;;;;;;2.90;2.00;;;;;;;3.37;100.00;95958.31;4972165;28;20484;-81
2023/01/24 12:18:49;;;;;;;2.70;2.50;;;;;;;3.39;100.00;95961.69;4972158;28;20543;-81
2023/01/24 12:21:16;;;;;;;4.60;2.30;;;;;;;3.51;100.00;95961.22;4972452;28;20465;-80
2023/01/24 12:23:50;;;;;;;2.63;2.30;;;;;;;3.36;100.00;95960.06;4956002;28;20850;-81
2023/01/24 12:26:20;;;;;;;4.70;2.90;;;;;;;3.46;100.00;95967.47;4971902;28;20889;-81